Time;durP1;ratioP1;P1;durP2;ratioP2;P2;SDS_P1;SDS_P2;PMS_P1;PMS_P2;Temp;Humidity;BMP_temperature;BMP_pressure;BME280_temperature;BME280_humidity;BME280_pressure;Samples;Min_cycle;Max_cycle;Signal;HPM_P1;HPM_P2
2023/09/10 00:00:21;;;;;;;17.38;15.77;;;19.50;99.90;;;;;;5017613;28;20045;-71
2023/09/10 00:02:46;;;;;;;17.10;15.57;;;19.50;99.90;;;;;;5017217;28;20490;-71
2023/09/10 00:05:12;;;;;;;16.55;14.85;;;19.50;99.90;;;;;;5017274;28;20037;-71
2023/09/10 00:07:37;;;;;;;15.10;13.57;;;19.50;99.90;;;;;;5017516;28;20037;-71
2023/09/10 00:10:03;;;;;;;13.15;11.85;;;19.40;99.90;;;;;;5017207;28;20040;-71
2023/09/10 00:12:29;;;;;;;14.40;12.90;;;19.40;99.90;;;;;;5017393;28;20178;-71
2023/09/10 00:14:55;;;;;;;15.45;14.02;;;19.30;99.90;;;;;;5017163;28;20497;-71
2023/09/10 00:17:20;;;;;;;14.75;13.32;;;19.30;99.90;;;;;;5035340;28;20084;-71
2023/09/10 00:19:46;;;;;;;14.38;13.00;;;19.30;99.90;;;;;;5017367;28;20406;-71
2023/09/10 00:22:12;;;;;;;14.93;13.43;;;19.30;99.90;;;;;;5016949;28;20506;-71
2023/09/10 00:24:37;;;;;;;14.20;12.80;;;19.30;99.90;;;;;;5016931;28;20117;-71
2023/09/10 00:27:03;;;;;;;15.27;13.77;;;19.30;99.90;;;;;;5000931;28;20128;-71
2023/09/10 00:29:28;;;;;;;15.07;13.77;;;19.30;99.90;;;;;;5016881;28;20406;-71
2023/09/10 00:31:54;;;;;;;15.98;14.52;;;19.20;99.90;;;;;;4980272;28;1061163;-71
2023/09/10 00:34:20;;;;;;;16.90;15.18;;;19.20;99.90;;;;;;5018251;28;20045;-71
2023/09/10 00:36:45;;;;;;;15.70;14.10;;;19.20;99.90;;;;;;5018204;28;20410;-71
2023/09/10 00:39:11;;;;;;;16.67;15.00;;;19.20;99.90;;;;;;5017937;28;20515;-71
2023/09/10 00:41:36;;;;;;;16.38;14.88;;;19.20;99.90;;;;;;5018055;28;20052;-71
2023/09/10 00:44:02;;;;;;;17.00;15.20;;;19.20;99.90;;;;;;5017700;28;20037;-71
2023/09/10 00:46:29;;;;;;;16.05;13.85;;;19.20;99.90;;;;;;5017766;28;20045;-70
2023/09/10 00:48:55;;;;;;;17.05;15.35;;;19.10;99.90;;;;;;5018040;28;20091;-71
2023/09/10 00:51:21;;;;;;;17.17;15.48;;;19.10;99.90;;;;;;5017644;28;20037;-71
2023/09/10 00:53:46;;;;;;;17.20;15.60;;;19.10;99.90;;;;;;5017830;28;20088;-72
2023/09/10 00:56:13;;;;;;;17.40;15.80;;;19.10;99.90;;;;;;5017647;28;20387;-71
2023/09/10 00:58:39;;;;;;;17.80;16.15;;;19.10;99.90;;;;;;5001204;28;20041;-71
2023/09/10 01:01:04;;;;;;;17.70;16.08;;;19.00;99.90;;;;;;5017474;28;20049;-71
2023/09/10 01:03:31;;;;;;;18.35;16.35;;;19.00;99.90;;;;;;5001007;28;20037;-71
2023/09/10 01:05:57;;;;;;;18.77;16.98;;;19.00;99.90;;;;;;5017368;28;20033;-71
2023/09/10 01:08:23;;;;;;;18.13;16.40;;;19.00;99.90;;;;;;5017644;28;20102;-71
2023/09/10 01:10:52;;;;;;;19.00;17.20;;;19.00;99.90;;;;;;5000807;28;20498;-71
2023/09/10 01:13:33;;;;;;;17.33;15.43;;;18.90;99.90;;;;;;5017518;28;20098;-71
2023/09/10 01:16:06;;;;;;;17.88;15.32;;;18.90;99.90;;;;;;5017447;28;20053;-71
2023/09/10 01:18:49;;;;;;;18.15;16.35;;;18.90;99.90;;;;;;5000872;28;20060;-71
2023/09/10 01:21:33;;;;;;;14.10;12.77;;;18.90;99.90;;;;;;5017015;28;20045;-71
2023/09/10 01:24:27;;;;;;;13.68;12.48;;;18.80;99.90;;;;;;5017095;28;20041;-71
2023/09/10 01:26:57;;;;;;;16.85;15.35;;;18.80;99.90;;;;;;5017277;28;20037;-71
2023/09/10 01:29:23;;;;;;;17.60;15.98;;;18.70;99.90;;;;;;5016946;28;20038;-71
2023/09/10 01:31:54;;;;;;;16.35;14.63;;;18.70;99.90;;;;;;5016813;28;20038;-70
2023/09/10 01:34:24;;;;;;;15.02;13.60;;;18.70;99.90;;;;;;5016829;28;20487;-71
2023/09/10 01:36:56;;;;;;;17.92;16.23;;;18.70;99.90;;;;;;5000810;28;20505;-71
2023/09/10 01:39:36;;;;;;;17.98;16.27;;;18.70;99.90;;;;;;5017081;28;20163;-70
2023/09/10 01:42:04;;;;;;;18.20;16.60;;;18.60;99.90;;;;;;5016680;28;20049;-70
2023/09/10 01:44:31;;;;;;;20.45;18.45;;;18.60;99.90;;;;;;5015825;28;20046;-71
2023/09/10 01:46:57;;;;;;;20.27;18.48;;;18.50;99.90;;;;;;5016706;28;20494;-71
2023/09/10 01:49:24;;;;;;;20.45;18.60;;;18.60;99.90;;;;;;5016537;28;20516;-71
2023/09/10 01:51:50;;;;;;;17.33;15.73;;;18.60;99.90;;;;;;5016442;28;20044;-71
2023/09/10 01:54:15;;;;;;;14.95;13.40;;;18.50;99.90;;;;;;5016480;28;20037;-71
2023/09/10 01:56:41;;;;;;;13.20;11.93;;;18.50;99.90;;;;;;5000146;28;20134;-71
2023/09/10 01:59:07;;;;;;;10.15;9.10;;;18.40;99.90;;;;;;5016405;28;20033;-71
2023/09/10 02:01:32;;;;;;;11.88;10.88;;;18.40;99.90;;;;;;5016316;28;20140;-71
2023/09/10 02:03:58;;;;;;;15.77;14.25;;;18.40;99.90;;;;;;5016262;28;20105;-71
2023/09/10 02:06:23;;;;;;;15.57;14.18;;;18.40;99.90;;;;;;5000185;28;20044;-71
2023/09/10 02:08:49;;;;;;;16.90;15.20;;;18.40;99.90;;;;;;5016537;28;20033;-71
2023/09/10 02:11:14;;;;;;;12.40;11.20;;;18.40;99.90;;;;;;5016367;28;20560;-71
2023/09/10 02:13:41;;;;;;;9.65;8.77;;;18.30;99.90;;;;;;5016169;28;20453;-71
2023/09/10 02:16:07;;;;;;;10.50;9.50;;;18.30;99.90;;;;;;5016080;28;20079;-71
2023/09/10 02:18:32;;;;;;;13.65;12.38;;;18.30;99.90;;;;;;5016096;28;20087;-70
2023/09/10 02:20:58;;;;;;;14.38;12.88;;;18.30;99.90;;;;;;5016234;28;20045;-71
2023/09/10 02:23:23;;;;;;;16.67;15.07;;;18.30;99.90;;;;;;5015940;28;20510;-71
2023/09/10 02:25:49;;;;;;;17.48;15.77;;;18.30;99.90;;;;;;5016027;28;20037;-71
2023/09/10 02:28:15;;;;;;;16.83;15.18;;;18.30;99.90;;;;;;4999607;28;20038;-70
2023/09/10 02:30:40;;;;;;;17.08;15.48;;;18.20;99.90;;;;;;5015803;28;20067;-71
2023/09/10 02:33:09;;;;;;;14.13;12.73;;;18.20;99.90;;;;;;5016002;28;20128;-71
2023/09/10 02:35:34;;;;;;;14.98;13.32;;;18.10;99.90;;;;;;5015808;28;20037;-71
2023/09/10 02:38:00;;;;;;;14.32;13.02;;;18.10;99.90;;;;;;5015796;28;20103;-71
2023/09/10 02:40:25;;;;;;;13.18;12.07;;;18.10;99.90;;;;;;5016039;28;20045;-71
2023/09/10 02:42:51;;;;;;;14.80;13.25;;;18.00;99.90;;;;;;4999326;28;20541;-71
2023/09/10 02:45:17;;;;;;;14.63;13.13;;;18.00;99.90;;;;;;5015688;28;20029;-71
2023/09/10 02:47:42;;;;;;;16.20;14.40;;;18.00;99.90;;;;;;5016239;28;20037;-71
2023/09/10 02:50:09;;;;;;;16.20;14.60;;;18.00;99.90;;;;;;5033331;28;20172;-71
2023/09/10 02:52:36;;;;;;;14.80;13.30;;;18.00;99.90;;;;;;5015554;28;20037;-71
2023/09/10 02:55:02;;;;;;;16.73;15.13;;;17.90;99.90;;;;;;5015444;28;20489;-71
2023/09/10 02:57:27;;;;;;;17.27;15.57;;;17.80;99.90;;;;;;4999220;28;20076;-71
2023/09/10 02:59:53;;;;;;;18.40;16.70;;;17.90;99.90;;;;;;5015491;28;20051;-71
2023/09/10 03:02:18;;;;;;;18.55;16.65;;;17.90;99.90;;;;;;5015502;28;20091;-71
2023/09/10 03:04:44;;;;;;;18.40;16.50;;;17.80;99.90;;;;;;5015365;28;20088;-71
2023/09/10 03:07:09;;;;;;;17.88;16.10;;;17.80;99.90;;;;;;5015696;28;20069;-71
2023/09/10 03:09:35;;;;;;;19.38;17.33;;;17.80;99.90;;;;;;5015662;28;20030;-71
2023/09/10 03:12:27;;;;;;;20.05;18.10;;;17.80;99.90;;;;;;5015284;28;20533;-71
2023/09/10 03:14:53;;;;;;;18.02;16.38;;;17.80;99.90;;;;;;4998999;28;20091;-71
2023/09/10 03:17:19;;;;;;;19.23;17.33;;;17.70;99.90;;;;;;5015329;28;20486;-70
2023/09/10 03:19:45;;;;;;;19.40;17.42;;;17.70;99.90;;;;;;5015234;28;20053;-70
2023/09/10 03:22:11;;;;;;;18.65;16.73;;;17.70;99.90;;;;;;5015245;28;20124;-70
2023/09/10 03:24:37;;;;;;;20.15;18.17;;;17.70;99.90;;;;;;4998758;28;20045;-71
2023/09/10 03:27:03;;;;;;;20.92;18.83;;;17.70;99.90;;;;;;5015509;28;20064;-71
2023/09/10 03:29:32;;;;;;;21.80;19.48;;;17.60;99.90;;;;;;5015285;28;20037;-71
2023/09/10 03:31:58;;;;;;;22.17;19.88;;;17.60;99.90;;;;;;5015247;28;20413;-71
2023/09/10 03:34:23;;;;;;;19.98;18.00;;;17.60;99.90;;;;;;5015172;28;20542;-71
2023/09/10 03:36:49;;;;;;;19.30;17.30;;;17.60;99.90;;;;;;5015121;28;20046;-71
2023/09/10 03:39:14;;;;;;;16.85;15.27;;;17.60;99.90;;;;;;5015215;28;20079;-70
2023/09/10 03:41:40;;;;;;;20.85;17.42;;;17.60;99.90;;;;;;5015306;28;20040;-71
2023/09/10 03:44:06;;;;;;;17.88;16.17;;;17.50;99.90;;;;;;5015046;28;20521;-71
2023/09/10 03:46:31;;;;;;;17.42;15.75;;;17.60;99.90;;;;;;5015117;28;20041;-71
2023/09/10 03:48:57;;;;;;;17.98;16.25;;;17.50;99.90;;;;;;5015031;28;20037;-71
2023/09/10 03:51:22;;;;;;;17.63;15.93;;;17.50;99.90;;;;;;5014988;28;20049;-71
2023/09/10 03:53:48;;;;;;;17.30;15.60;;;17.50;99.90;;;;;;5015102;28;20048;-71
2023/09/10 03:56:14;;;;;;;16.20;14.75;;;17.50;99.90;;;;;;5015218;28;20064;-70
2023/09/10 03:58:39;;;;;;;17.67;15.98;;;17.50;99.90;;;;;;5014906;28;20046;-71
2023/09/10 04:01:05;;;;;;;17.20;15.57;;;17.40;99.90;;;;;;5014854;28;20037;-71
2023/09/10 04:03:31;;;;;;;17.70;15.93;;;17.40;99.90;;;;;;5014839;28;20048;-71
2023/09/10 04:05:56;;;;;;;16.55;14.80;;;17.40;99.90;;;;;;5015132;28;20036;-71
2023/09/10 04:08:22;;;;;;;18.70;16.90;;;17.40;99.90;;;;;;5017903;28;20445;-71
2023/09/10 04:10:47;;;;;;;16.77;15.07;;;17.40;99.90;;;;;;5018383;28;20069;-70
2023/09/10 04:13:13;;;;;;;15.85;14.15;;;17.40;99.90;;;;;;5018675;28;20071;-71
2023/09/10 04:15:38;;;;;;;18.20;16.23;;;17.40;99.90;;;;;;5018698;28;20049;-71
2023/09/10 04:18:05;;;;;;;22.25;20.02;;;17.40;99.90;;;;;;5018398;28;20498;-71
2023/09/10 04:20:31;;;;;;;19.38;17.48;;;17.50;99.90;;;;;;5018593;28;20072;-71
2023/09/10 04:22:57;;;;;;;19.38;17.42;;;17.50;99.90;;;;;;5018106;28;20095;-71
2023/09/10 04:25:23;;;;;;;20.45;18.55;;;17.50;99.90;;;;;;5018471;28;20037;-71
2023/09/10 04:27:49;;;;;;;20.55;18.23;;;17.50;99.90;;;;;;5018129;28;20037;-71
2023/09/10 04:30:15;;;;;;;20.67;18.45;;;17.50;99.90;;;;;;5018117;28;20048;-71
2023/09/10 04:32:41;;;;;;;23.70;21.27;;;17.50;99.90;;;;;;5018230;28;20041;-71
2023/09/10 04:35:07;;;;;;;25.95;23.40;;;17.50;99.90;;;;;;5018343;28;20045;-71
2023/09/10 04:37:34;;;;;;;29.30;26.35;;;17.50;99.90;;;;;;5017977;28;20037;-71
2023/09/10 04:40:07;;;;;;;25.08;22.48;;;17.50;99.90;;;;;;5017953;28;20120;-71
2023/09/10 04:42:36;;;;;;;22.92;20.65;;;17.50;99.90;;;;;;5017885;28;20041;-70
2023/09/10 04:45:03;;;;;;;20.50;18.00;;;17.50;99.90;;;;;;5017773;28;20067;-71
2023/09/10 04:47:29;;;;;;;23.27;20.60;;;17.60;99.90;;;;;;5018066;28;20033;-71
2023/09/10 04:49:55;;;;;;;22.45;20.02;;;17.60;99.90;;;;;;5017828;28;20405;-70
2023/09/10 04:52:20;;;;;;;23.63;21.40;;;17.60;99.90;;;;;;5018328;28;20113;-70
2023/09/10 04:54:46;;;;;;;23.08;20.75;;;17.60;99.90;;;;;;5017931;28;20111;-71
2023/09/10 04:57:11;;;;;;;28.40;25.13;;;17.60;99.90;;;;;;5017627;28;20410;-71
2023/09/10 04:59:37;;;;;;;29.48;26.58;;;17.60;99.90;;;;;;5001254;28;20040;-71
2023/09/10 05:02:04;;;;;;;29.33;26.33;;;17.60;99.90;;;;;;5017588;28;20037;-71
2023/09/10 05:04:30;;;;;;;25.35;22.73;;;17.60;99.90;;;;;;5001276;28;20037;-71
2023/09/10 05:06:56;;;;;;;28.88;25.85;;;17.60;99.90;;;;;;5017416;28;20047;-71
2023/09/10 05:09:22;;;;;;;29.92;26.80;;;17.60;99.90;;;;;;5001286;28;20052;-70
2023/09/10 05:11:48;;;;;;;30.42;27.35;;;17.60;99.90;;;;;;5017315;28;20038;-70
2023/09/10 05:14:13;;;;;;;29.00;26.00;;;17.60;99.90;;;;;;5017337;28;20108;-71
2023/09/10 05:16:39;;;;;;;28.70;25.45;;;17.60;99.90;;;;;;5017288;28;20045;-70
2023/09/10 05:19:05;;;;;;;31.38;28.33;;;17.60;99.90;;;;;;5016037;28;20414;-71
2023/09/10 05:21:31;;;;;;;30.60;27.50;;;17.70;99.90;;;;;;5017130;28;20056;-71
2023/09/10 05:23:57;;;;;;;24.98;22.35;;;17.60;99.90;;;;;;5017233;28;20124;-70
2023/09/10 05:26:22;;;;;;;26.45;23.85;;;17.60;99.90;;;;;;5017079;28;20501;-70
2023/09/10 05:28:48;;;;;;;28.58;25.73;;;17.60;99.90;;;;;;5016897;28;20041;-70
2023/09/10 05:31:13;;;;;;;27.13;24.40;;;17.70;99.90;;;;;;5016801;28;20056;-70
2023/09/10 05:33:39;;;;;;;27.13;24.48;;;17.70;99.90;;;;;;5017320;28;20045;-70
2023/09/10 05:36:05;;;;;;;26.08;23.25;;;17.70;99.90;;;;;;5016931;28;20498;-70
2023/09/10 05:38:30;;;;;;;24.63;22.20;;;17.70;99.90;;;;;;5016792;28;20037;-71
2023/09/10 05:41:02;;;;;;;27.13;24.40;;;17.70;99.90;;;;;;5034487;28;20037;-70
2023/09/10 05:43:29;;;;;;;28.88;25.88;;;17.80;99.90;;;;;;5016745;28;20052;-70
2023/09/10 05:45:56;;;;;;;27.85;24.52;;;17.80;99.90;;;;;;5016924;28;20041;-70
2023/09/10 05:48:22;;;;;;;25.52;22.98;;;17.90;99.90;;;;;;5016690;28;20047;-70
2023/09/10 05:50:48;;;;;;;27.25;24.55;;;17.90;99.90;;;;;;5000244;28;20046;-71
2023/09/10 05:53:13;;;;;;;26.70;24.20;;;17.90;99.90;;;;;;5016432;28;20110;-71
2023/09/10 05:55:40;;;;;;;27.90;25.20;;;18.00;99.90;;;;;;5016531;28;20041;-71
2023/09/10 05:58:10;;;;;;;31.42;28.35;;;18.00;99.90;;;;;;5016441;28;20041;-71
2023/09/10 06:00:35;;;;;;;30.25;27.02;;;18.10;99.90;;;;;;5016293;28;20568;-71
2023/09/10 06:03:02;;;;;;;27.27;24.55;;;18.10;99.90;;;;;;5016408;28;20045;-72
2023/09/10 06:05:27;;;;;;;28.42;25.58;;;18.10;99.90;;;;;;5017272;28;20042;-72
2023/09/10 06:07:53;;;;;;;29.63;26.67;;;18.10;99.90;;;;;;5016437;28;20084;-72
2023/09/10 06:10:18;;;;;;;31.27;28.27;;;18.10;99.90;;;;;;5016197;28;20049;-72
2023/09/10 06:12:44;;;;;;;35.38;28.63;;;18.20;99.90;;;;;;5016376;28;20029;-73
2023/09/10 06:15:10;;;;;;;31.17;27.77;;;18.20;99.90;;;;;;5016112;28;20406;-72
2023/09/10 06:17:36;;;;;;;33.63;30.02;;;18.20;99.90;;;;;;5016381;28;20037;-73
2023/09/10 06:20:04;;;;;;;30.77;27.67;;;18.30;99.90;;;;;;4999688;28;20551;-74
2023/09/10 06:22:30;;;;;;;31.15;27.98;;;18.40;99.90;;;;;;5016241;28;20493;-74
2023/09/10 06:24:56;;;;;;;29.58;26.77;;;18.40;99.90;;;;;;5015932;28;20034;-74
2023/09/10 06:27:22;;;;;;;30.70;27.73;;;18.50;99.90;;;;;;4999540;28;20052;-74
2023/09/10 06:29:47;;;;;;;32.17;29.00;;;18.60;99.90;;;;;;5015546;28;20060;-74
2023/09/10 06:32:13;;;;;;;34.90;31.50;;;18.70;99.90;;;;;;4999284;28;20038;-74
2023/09/10 06:34:39;;;;;;;38.20;34.38;;;18.70;99.90;;;;;;5016147;28;20049;-74
2023/09/10 06:37:05;;;;;;;33.53;30.15;;;18.80;99.90;;;;;;4999427;28;20056;-74
2023/09/10 06:39:38;;;;;;;37.95;34.33;;;18.90;99.90;;;;;;5015704;28;20520;-74
2023/09/10 06:42:07;;;;;;;32.20;28.75;;;19.00;99.90;;;;;;4999313;28;20505;-74
2023/09/10 06:44:33;;;;;;;36.53;32.92;;;19.10;99.90;;;;;;5015733;28;20118;-74
2023/09/10 06:46:59;;;;;;;37.03;33.33;;;19.20;99.90;;;;;;5015971;28;20486;-75
2023/09/10 06:49:26;;;;;;;35.70;32.05;;;19.30;99.90;;;;;;5015649;28;20038;-75
2023/09/10 06:51:51;;;;;;;31.38;28.30;;;19.40;99.90;;;;;;5015901;28;20064;-75
2023/09/10 06:54:17;;;;;;;36.13;32.50;;;19.50;99.90;;;;;;4999499;28;20045;-75
2023/09/10 06:56:42;;;;;;;37.10;33.40;;;19.60;99.90;;;;;;5015430;28;20468;-75
2023/09/10 06:59:08;;;;;;;32.13;28.88;;;19.70;99.90;;;;;;5015814;28;20037;-75
2023/09/10 07:01:37;;;;;;;32.28;28.88;;;19.70;99.90;;;;;;5015456;28;20390;-75
2023/09/10 07:04:21;;;;;;;31.33;28.13;;;19.80;99.90;;;;;;4999311;28;20497;-74
2023/09/10 07:06:49;;;;;;;35.85;32.28;;;20.00;99.90;;;;;;5015465;28;20419;-74
2023/09/10 07:09:23;;;;;;;36.28;32.42;;;19.90;99.90;;;;;;5015651;28;20099;-74
2023/09/10 07:11:50;;;;;;;36.53;32.83;;;20.10;99.90;;;;;;5015503;28;20042;-74
2023/09/10 07:14:16;;;;;;;33.25;29.77;;;20.10;99.90;;;;;;5015563;28;20055;-74
2023/09/10 07:16:41;;;;;;;36.05;32.35;;;20.20;99.90;;;;;;5015245;28;20120;-74
2023/09/10 07:19:07;;;;;;;38.63;34.83;;;20.30;99.90;;;;;;5015238;28;20081;-74
2023/09/10 07:21:32;;;;;;;34.08;30.88;;;20.40;99.90;;;;;;5015183;28;20099;-74
2023/09/10 07:23:58;;;;;;;29.50;26.50;;;20.50;99.90;;;;;;4998823;28;20042;-75
2023/09/10 07:26:24;;;;;;;29.90;26.98;;;20.50;99.90;;;;;;4999315;28;20033;-74
2023/09/10 07:28:49;;;;;;;31.17;28.10;;;20.60;99.90;;;;;;5015233;28;20509;-74
2023/09/10 07:31:15;;;;;;;26.15;23.40;;;20.70;99.90;;;;;;5015066;28;20037;-75
2023/09/10 07:33:40;;;;;;;28.98;26.17;;;20.80;99.90;;;;;;5015211;28;20049;-75
2023/09/10 07:36:06;;;;;;;24.77;22.27;;;20.90;99.90;;;;;;5015108;28;20041;-75
2023/09/10 07:38:32;;;;;;;26.50;23.67;;;21.00;99.90;;;;;;5015073;28;20041;-75
2023/09/10 07:40:57;;;;;;;24.70;22.48;;;21.10;99.90;;;;;;5015886;28;20045;-75
2023/09/10 07:43:23;;;;;;;23.80;21.33;;;21.20;99.90;;;;;;5001848;28;20064;-75
2023/09/10 07:45:49;;;;;;;24.45;22.00;;;21.30;99.90;;;;;;5019120;28;20120;-75
2023/09/10 07:48:15;;;;;;;21.88;19.63;;;21.40;99.90;;;;;;5002726;28;20379;-75
2023/09/10 07:50:41;;;;;;;22.63;20.48;;;21.50;99.90;;;;;;5018713;28;20071;-75
2023/09/10 07:53:07;;;;;;;23.65;21.45;;;21.70;99.90;;;;;;5018730;28;20458;-75
2023/09/10 07:55:36;;;;;;;22.55;20.38;;;21.70;99.90;;;;;;5018705;28;20076;-75
2023/09/10 07:58:02;;;;;;;23.33;20.38;;;21.90;99.90;;;;;;5018687;28;20052;-75
2023/09/10 08:00:29;;;;;;;20.63;18.52;;;22.00;99.90;;;;;;5018625;28;20038;-75
2023/09/10 08:02:55;;;;;;;22.25;19.85;;;22.10;99.90;;;;;;5018409;28;20053;-75
2023/09/10 08:05:20;;;;;;;22.35;19.83;;;22.20;99.90;;;;;;5018513;28;20029;-75
2023/09/10 08:07:46;;;;;;;25.63;21.90;;;22.40;99.90;;;;;;5018507;28;20087;-75
2023/09/10 08:10:12;;;;;;;24.77;22.08;;;22.50;99.90;;;;;;5002632;28;20124;-75
2023/09/10 08:12:37;;;;;;;21.75;18.80;;;22.60;99.90;;;;;;5018365;28;20040;-75
2023/09/10 08:15:04;;;;;;;22.92;20.73;;;22.80;99.90;;;;;;5018429;28;20041;-72
2023/09/10 08:17:29;;;;;;;26.85;22.08;;;22.90;99.90;;;;;;5018357;28;20501;-71
2023/09/10 08:19:55;;;;;;;24.10;21.35;;;23.10;99.90;;;;;;5018360;28;20086;-71
2023/09/10 08:22:21;;;;;;;23.13;19.77;;;23.20;99.90;;;;;;5018246;28;20037;-72
2023/09/10 08:24:48;;;;;;;22.15;19.80;;;23.40;99.90;;;;;;5018240;28;20037;-72
2023/09/10 08:27:13;;;;;;;22.75;20.38;;;23.60;99.90;;;;;;5018103;28;20041;-72
2023/09/10 08:29:39;;;;;;;22.33;20.15;;;23.80;99.90;;;;;;5018347;28;20041;-72
2023/09/10 08:32:05;;;;;;;22.75;19.42;;;24.00;99.90;;;;;;5018044;28;20446;-72
2023/09/10 08:34:30;;;;;;;21.67;19.50;;;24.20;99.90;;;;;;5018037;28;20037;-72
2023/09/10 08:36:56;;;;;;;21.50;18.98;;;24.40;99.90;;;;;;5018009;28;20038;-72
2023/09/10 08:39:22;;;;;;;19.67;17.83;;;24.60;99.90;;;;;;5018333;28;20037;-72
2023/09/10 08:42:01;;;;;;;21.52;19.33;;;24.80;99.90;;;;;;5001870;28;20478;-72
2023/09/10 08:44:29;;;;;;;20.65;18.65;;;24.90;99.90;;;;;;5017885;28;20088;-72
2023/09/10 08:46:58;;;;;;;20.02;17.95;;;25.10;99.90;;;;;;5018018;28;20081;-72
2023/09/10 08:49:27;;;;;;;17.83;16.02;;;25.30;99.90;;;;;;5018205;28;20112;-72
2023/09/10 08:51:53;;;;;;;21.88;18.13;;;25.50;99.90;;;;;;5017488;28;20041;-71
2023/09/10 08:54:19;;;;;;;18.67;16.80;;;25.70;99.90;;;;;;5017376;28;20045;-71
2023/09/10 08:56:46;;;;;;;17.45;15.65;;;26.00;99.60;;;;;;5001246;28;20044;-71
2023/09/10 08:59:13;;;;;;;16.73;15.13;;;26.20;99.10;;;;;;5017710;28;20056;-72
2023/09/10 09:01:39;;;;;;;15.27;13.73;;;26.30;98.20;;;;;;5017418;28;20132;-71
2023/09/10 09:04:05;;;;;;;15.13;12.93;;;26.60;97.80;;;;;;5017332;28;20164;-72
2023/09/10 09:06:33;;;;;;;15.32;13.70;;;26.80;96.90;;;;;;5017364;28;20042;-72
2023/09/10 09:09:06;;;;;;;17.42;14.27;;;27.00;96.40;;;;;;5017507;28;20485;-72
2023/09/10 09:11:35;;;;;;;16.05;12.25;;;27.00;94.60;;;;;;5000899;28;20136;-72
2023/09/10 09:14:02;;;;;;;15.05;13.52;;;27.30;94.30;;;;;;5017214;28;20529;-72
2023/09/10 09:16:28;;;;;;;14.25;12.52;;;27.50;93.80;;;;;;5001041;28;20153;-72
2023/09/10 09:18:55;;;;;;;14.63;13.10;;;27.60;93.20;;;;;;5017111;28;20517;-72
2023/09/10 09:21:24;;;;;;;14.55;10.82;;;27.80;92.70;;;;;;5017018;28;20076;-72
2023/09/10 09:23:53;;;;;;;13.00;11.38;;;27.90;91.80;;;;;;5000682;28;20052;-71
2023/09/10 09:26:21;;;;;;;13.52;11.52;;;28.10;91.40;;;;;;5017242;28;20053;-71
2023/09/10 09:28:47;;;;;;;15.52;12.32;;;28.20;90.60;;;;;;5016954;28;20030;-71
2023/09/10 09:31:13;;;;;;;16.30;13.10;;;28.30;90.30;;;;;;5016980;28;20045;-71
2023/09/10 09:33:39;;;;;;;15.73;11.82;;;28.60;89.30;;;;;;5017216;28;20102;-71
2023/09/10 09:36:09;;;;;;;16.02;12.45;;;28.70;89.10;;;;;;5017058;28;20124;-71
2023/09/10 09:38:40;;;;;;;12.43;11.20;;;28.90;88.80;;;;;;5016804;28;20045;-71
2023/09/10 09:41:06;;;;;;;16.55;12.38;;;29.00;89.70;;;;;;5017026;28;20077;-71
2023/09/10 09:43:35;;;;;;;13.52;10.93;;;29.10;87.50;;;;;;5016753;28;20100;-71
2023/09/10 09:46:02;;;;;;;16.40;11.70;;;29.20;87.60;;;;;;5017014;28;20044;-72
2023/09/10 09:48:28;;;;;;;13.38;11.60;;;29.40;85.50;;;;;;5016868;28;20080;-71
2023/09/10 09:50:54;;;;;;;14.65;10.88;;;29.60;84.40;;;;;;5000630;28;20624;-71
2023/09/10 09:53:27;;;;;;;12.55;9.95;;;29.70;84.20;;;;;;5016567;28;20049;-71
2023/09/10 09:55:59;;;;;;;;;;;29.80;83.00;;;;;;5017197;28;20124;-71
2023/09/10 09:58:25;;;;;;;11.13;10.00;;;29.90;81.00;;;;;;5016426;28;20288;-71
2023/09/10 10:00:51;;;;;;;12.10;10.48;;;29.90;82.20;;;;;;5016298;28;20033;-70
2023/09/10 10:03:18;;;;;;;15.80;10.73;;;30.00;81.00;;;;;;4999991;28;20049;-72
2023/09/10 10:05:47;;;;;;;13.80;10.32;;;30.10;80.90;;;;;;5015597;28;20072;-72
2023/09/10 10:08:15;;;;;;;12.65;11.15;;;30.20;80.20;;;;;;5016406;28;20124;-71
2023/09/10 10:10:48;;;;;;;12.23;8.93;;;30.40;78.90;;;;;;5016119;28;20041;-71
2023/09/10 10:13:20;;;;;;;10.63;9.43;;;30.50;79.20;;;;;;5016211;28;20103;-71
2023/09/10 10:15:47;;;;;;;12.23;9.83;;;30.70;78.10;;;;;;5016123;28;20069;-71
2023/09/10 10:18:16;;;;;;;11.90;10.35;;;30.80;77.60;;;;;;5016092;28;20796;-72
2023/09/10 10:20:47;;;;;;;11.10;9.48;;;30.80;76.60;;;;;;5016232;28;20068;-71
2023/09/10 10:23:13;;;;;;;11.82;9.50;;;30.90;75.70;;;;;;5016207;28;20120;-71
2023/09/10 10:25:44;;;;;;;13.70;9.15;;;31.00;76.00;;;;;;5015907;28;20033;-72
2023/09/10 10:28:10;;;;;;;15.27;9.85;;;31.10;73.30;;;;;;5015944;28;20045;-72
2023/09/10 10:30:47;;;;;;;14.35;8.80;;;31.10;73.50;;;;;;5015891;28;20100;-70
2023/09/10 10:33:16;;;;;;;15.00;9.70;;;31.20;74.50;;;;;;5015786;28;20049;-71
2023/09/10 10:35:50;;;;;;;12.80;9.95;;;31.30;73.50;;;;;;5015806;28;20041;-71
2023/09/10 10:38:21;;;;;;;16.38;8.98;;;31.40;74.50;;;;;;5015911;28;20045;-71
2023/09/10 10:40:49;;;;;;;12.15;7.68;;;31.50;74.20;;;;;;5015730;28;20033;-71
2023/09/10 10:43:25;;;;;;;18.63;9.70;;;31.70;73.20;;;;;;5015722;28;20037;-71
2023/09/10 10:45:55;;;;;;;15.85;9.18;;;31.70;71.90;;;;;;5016533;28;20044;-71
2023/09/10 10:48:24;;;;;;;15.75;8.55;;;31.90;71.70;;;;;;5015655;28;20049;-71
2023/09/10 10:50:53;;;;;;;15.63;8.20;;;31.80;71.30;;;;;;5015528;28;20112;-71
2023/09/10 10:53:22;;;;;;;14.32;8.32;;;32.00;71.60;;;;;;5015861;28;20049;-71
2023/09/10 10:55:51;;;;;;;15.38;7.38;;;32.10;71.40;;;;;;5015750;28;20045;-71
2023/09/10 10:58:21;;;;;;;14.02;8.13;;;32.00;70.30;;;;;;5015486;28;20033;-71
2023/09/10 11:00:52;;;;;;;12.00;8.05;;;32.10;69.30;;;;;;5015420;28;20041;-70
2023/09/10 11:03:20;;;;;;;12.60;8.63;;;32.10;69.70;;;;;;5015326;28;20048;-71
2023/09/10 11:05:54;;;;;;;12.82;6.53;;;32.10;69.70;;;;;;5015354;28;20041;-71
2023/09/10 11:08:31;;;;;;;16.70;7.35;;;32.20;68.90;;;;;;5015373;28;20045;-71
2023/09/10 11:10:58;;;;;;;10.45;6.18;;;32.10;68.80;;;;;;5015328;28;20048;-71
2023/09/10 11:13:24;;;;;;;15.10;7.55;;;32.20;70.40;;;;;;5015661;28;20136;-71
2023/09/10 11:16:05;;;;;;;18.98;7.80;;;32.30;69.50;;;;;;5015877;28;20509;-71
2023/09/10 11:18:37;;;;;;;16.05;7.38;;;32.50;69.80;;;;;;5019672;28;20045;-71
2023/09/10 11:21:07;;;;;;;12.15;7.15;;;32.50;68.80;;;;;;5019320;28;20060;-71
2023/09/10 11:23:34;;;;;;;13.63;6.40;;;32.50;68.60;;;;;;5019282;28;20576;-71
2023/09/10 11:26:14;;;;;;;16.42;7.20;;;32.70;69.40;;;;;;5019435;28;20042;-71
2023/09/10 11:28:47;;;;;;;13.55;6.25;;;32.80;67.80;;;;;;5003254;28;20060;-71
2023/09/10 11:31:46;;;;;;;12.45;6.30;;;32.80;66.90;;;;;;5019221;28;20095;-71
2023/09/10 11:34:15;;;;;;;13.73;6.53;;;33.00;68.30;;;;;;5019768;28;20094;-71
2023/09/10 11:36:49;;;;;;;18.33;7.13;;;33.00;67.20;;;;;;5019316;28;20502;-71
2023/09/10 11:39:16;;;;;;;15.15;6.45;;;33.00;66.50;;;;;;5019305;28;20049;-71
2023/09/10 11:41:44;;;;;;;10.25;6.10;;;33.10;66.40;;;;;;5018951;28;20061;-71
2023/09/10 11:44:10;;;;;;;16.73;6.05;;;33.10;66.40;;;;;;5018899;28;20049;-71
2023/09/10 11:46:39;;;;;;;12.93;5.70;;;33.20;66.60;;;;;;5018845;28;20037;-71
2023/09/10 11:49:04;;;;;;;13.15;6.47;;;33.30;67.30;;;;;;5018863;28;20072;-71
2023/09/10 11:51:31;;;;;;;15.05;6.72;;;33.40;65.70;;;;;;5018797;28;20123;-71
2023/09/10 11:54:00;;;;;;;18.83;6.53;;;33.50;65.40;;;;;;5019018;28;20089;-71
2023/09/10 11:56:28;;;;;;;11.95;6.18;;;33.60;64.80;;;;;;5018760;28;20060;-71
2023/09/10 11:58:54;;;;;;;15.88;6.38;;;33.60;65.20;;;;;;5018731;28;20091;-71
2023/09/10 12:01:21;;;;;;;16.02;6.13;;;33.50;64.60;;;;;;5002349;28;20037;-71
2023/09/10 12:03:47;;;;;;;11.38;6.22;;;33.60;64.90;;;;;;5018489;28;20425;-71
2023/09/10 12:06:13;;;;;;;13.10;6.57;;;33.70;64.60;;;;;;5002286;28;20037;-71
2023/09/10 12:08:38;;;;;;;15.05;6.10;;;33.70;64.00;;;;;;5018583;28;20034;-71
2023/09/10 12:11:08;;;;;;;16.38;6.80;;;33.70;65.00;;;;;;5018398;28;20092;-71
2023/09/10 12:13:35;;;;;;;14.00;5.75;;;33.70;65.00;;;;;;5018362;28;20412;-71
2023/09/10 12:16:04;;;;;;;17.63;6.82;;;33.80;63.90;;;;;;5018466;28;20045;-71
2023/09/10 12:18:31;;;;;;;20.98;7.15;;;33.80;63.40;;;;;;5018673;28;20042;-71
2023/09/10 12:20:58;;;;;;;16.88;6.63;;;33.70;64.90;;;;;;5018541;28;20041;-71
2023/09/10 12:23:24;;;;;;;18.40;6.00;;;33.80;64.30;;;;;;5018764;28;20049;-71
2023/09/10 12:25:56;;;;;;;17.63;6.30;;;33.90;64.60;;;;;;5018492;28;20092;-70
2023/09/10 12:28:23;;;;;;;18.35;6.00;;;34.00;63.80;;;;;;5017491;28;20084;-71